Disclaimer

Please do not use the information listed here in-flight or in-navigation, as they are not provided to us by the airports but are provided by volunteers, so they might be outdated.

Search


Regions


Airport information page

Radio informations:
KAMLOOPS RDO - 126.7 MHz
VANCOUVER CNTR - 134.2 MHz

Airport informations:
Latitude: 49° 17' 47.00" N
Longitude: 117° 37' 57.00" W
Elevation: 1624 feet - 495 meters
Operating hours: 24 hour operations
Operating agency: Civil government, landing fees and diplomatic clearance may be required
Timezone: UTC-8(-7DT) - Second Sunday in March at 0200 to first Sunday in November at 0200 local time (Exception Arizona and that portion of Indiana in the Eastern Time Zone)
Fuel: Jet B, Wide cut turbine fuel, Without icing inhibitor.

100/130 MIL Spec, low lead, aviation gasoline (BLUE)

Runway information:
15/33 - 5300 x 150 feet< - >1615 x 46 meters

Recent METARs:
CYCG 181721Z VRB02KT 15SM SCT025 SCT100 BKN140 BKN240 M01/M03 A3037 RMK SC3AC1AC3CI1 CI TR SLP306
CYCG 181721Z VRB02KT 15SM SCT025 SCT100 BKN140 BKN240 M01/M03 A3037 RMK SC3AC1AC3CI1 CI TR SLP306
CYCG 181800Z 22002KT 15SM FEW020 SCT100 BKN140 00/M03 A3037 RMK SC1AC4AC1 SC TR SLP305

Airport on the map: